Time;durP1;ratioP1;P1;durP2;ratioP2;P2;SDS_P1;SDS_P2;PMS_P1;PMS_P2;Temp;Humidity;BMP_temperature;BMP_pressure;BME280_temperature;BME280_humidity;BME280_pressure;Samples;Min_cycle;Max_cycle;Signal;HPM_P1;HPM_P2
2022/04/24 00:01:06;;;;;;;14.02;8.82;;;23.20;41.20;;;;;;6136250;28;80795;-62
2022/04/24 00:04:07;;;;;;;15.38;9.07;;;23.30;41.20;;;;;;6153210;28;80916;-62
2022/04/24 00:07:10;;;;;;;15.27;8.77;;;23.20;41.20;;;;;;6159215;28;81957;-64
2022/04/24 00:10:11;;;;;;;12.23;8.63;;;23.20;41.20;;;;;;6157421;28;80145;-61
2022/04/24 00:13:11;;;;;;;14.35;8.23;;;23.20;41.20;;;;;;6159550;28;80201;-64
2022/04/24 00:16:12;;;;;;;13.40;8.40;;;23.20;41.20;;;;;;6158118;28;80634;-61
2022/04/24 00:19:15;;;;;;;13.38;7.90;;;23.20;41.10;;;;;;6158952;28;80528;-62
2022/04/24 00:22:16;;;;;;;14.30;8.23;;;23.20;41.20;;;;;;6158987;28;80829;-65
2022/04/24 00:25:16;;;;;;;13.65;7.68;;;23.20;41.10;;;;;;6158664;28;85163;-63
2022/04/24 00:28:17;;;;;;;13.20;8.25;;;23.20;41.10;;;;;;6159414;28;80861;-62
2022/04/24 00:31:17;;;;;;;13.52;8.07;;;23.20;41.10;;;;;;6157365;28;81377;-62
2022/04/24 00:34:18;;;;;;;15.15;8.40;;;23.10;41.00;;;;;;6159045;28;80496;-62
2022/04/24 00:37:18;;;;;;;14.82;9.15;;;23.20;41.60;;;;;;6158865;28;81734;-62
2022/04/24 00:40:19;;;;;;;14.95;8.77;;;23.20;41.00;;;;;;6158738;28;80920;-62
2022/04/24 00:43:20;;;;;;;16.85;8.77;;;23.20;40.90;;;;;;6158662;28;80588;-62
2022/04/24 00:46:46;;;;;;;11.32;7.68;;;23.20;40.90;;;;;;6162025;28;80945;-61
2022/04/24 00:49:47;;;;;;;15.38;8.27;;;23.20;40.90;;;;;;6154692;28;81748;-62
2022/04/24 00:52:47;;;;;;;13.65;8.00;;;23.20;41.20;;;;;;6137867;28;81655;-62
2022/04/24 00:55:48;;;;;;;14.95;8.60;;;23.20;41.80;;;;;;6151316;28;82422;-62
2022/04/24 00:58:49;;;;;;;15.00;8.70;;;23.20;41.00;;;;;;6150815;28;80358;-62
2022/04/24 01:01:49;;;;;;;12.27;7.63;;;23.10;41.10;;;;;;6158459;28;81559;-62
2022/04/24 01:04:50;;;;;;;13.82;8.48;;;23.20;41.20;;;;;;6161759;28;80564;-62
2022/04/24 01:07:50;;;;;;;13.85;8.80;;;23.20;41.20;;;;;;6161771;28;80449;-62
2022/04/24 01:10:51;;;;;;;15.30;8.70;;;23.20;41.00;;;;;;6150290;28;80604;-63
2022/04/24 01:13:52;;;;;;;12.32;7.93;;;23.20;40.90;;;;;;6157518;28;80436;-62
2022/04/24 01:16:52;;;;;;;15.00;8.88;;;23.20;41.00;;;;;;6142844;28;81961;-61
2022/04/24 01:19:53;;;;;;;12.35;7.15;;;23.10;41.00;;;;;;6137913;28;80395;-62
2022/04/24 01:22:53;;;;;;;11.15;7.30;;;23.20;40.90;;;;;;6137985;28;80963;-62
2022/04/24 01:25:54;;;;;;;14.20;8.25;;;23.10;40.90;;;;;;6143918;28;80398;-62
2022/04/24 01:28:54;;;;;;;13.10;7.78;;;23.10;41.20;;;;;;6136282;28;82502;-63
2022/04/24 01:31:55;;;;;;;11.35;7.68;;;23.10;41.10;;;;;;6154610;28;80568;-63
2022/04/24 01:34:55;;;;;;;10.20;6.57;;;23.10;41.10;;;;;;6161743;28;80353;-63
2022/04/24 01:37:58;;;;;;;12.48;7.75;;;23.10;41.00;;;;;;6161826;28;80840;-63
2022/04/24 01:40:58;;;;;;;12.82;8.02;;;23.10;40.90;;;;;;6153854;28;81322;-63
2022/04/24 01:43:59;;;;;;;12.68;7.80;;;23.10;40.80;;;;;;6137651;28;80974;-62
2022/04/24 01:46:59;;;;;;;14.63;8.10;;;23.10;40.90;;;;;;6137631;28;80798;-63
2022/04/24 01:50:00;;;;;;;15.77;8.80;;;23.10;40.80;;;;;;6136592;28;80250;-62
2022/04/24 01:53:00;;;;;;;12.93;7.78;;;23.20;41.00;;;;;;6136907;28;80441;-62
2022/04/24 01:56:01;;;;;;;17.73;8.25;;;23.10;40.70;;;;;;6147420;28;80468;-62
2022/04/24 01:59:01;;;;;;;11.98;8.38;;;23.10;41.30;;;;;;6154655;28;81595;-62
2022/04/24 02:02:02;;;;;;;12.35;7.93;;;23.10;40.70;;;;;;6149859;28;80454;-63
2022/04/24 02:05:02;;;;;;;10.57;7.22;;;23.10;40.70;;;;;;6161352;28;81871;-63
2022/04/24 02:08:03;;;;;;;13.85;7.32;;;23.10;40.90;;;;;;6142676;28;82785;-62
2022/04/24 02:11:04;;;;;;;14.02;8.20;;;23.10;41.00;;;;;;6157987;28;80266;-63
2022/04/24 02:14:04;;;;;;;14.15;8.57;;;23.10;40.80;;;;;;6137494;28;80378;-64
2022/04/24 02:17:05;;;;;;;18.27;10.13;;;23.10;40.80;;;;;;6137634;28;80470;-63
2022/04/24 02:20:05;;;;;;;15.00;9.25;;;23.10;40.90;;;;;;6133840;28;82944;-63
2022/04/24 02:23:06;;;;;;;15.90;9.50;;;23.10;40.90;;;;;;6147889;28;82006;-62
2022/04/24 02:26:07;;;;;;;20.25;10.85;;;23.10;41.10;;;;;;6159800;28;80140;-62
2022/04/24 02:29:07;;;;;;;18.23;10.30;;;23.10;40.80;;;;;;6133706;28;83074;-62
2022/04/24 02:32:08;;;;;;;19.40;10.75;;;23.10;40.70;;;;;;6142070;28;83431;-62
2022/04/24 02:35:09;;;;;;;18.73;10.98;;;23.10;40.70;;;;;;6157955;28;82914;-62
2022/04/24 02:38:10;;;;;;;19.50;12.23;;;23.10;40.70;;;;;;6140463;28;83139;-62
2022/04/24 02:41:11;;;;;;;20.13;12.05;;;23.10;40.80;;;;;;6132992;28;82969;-62
2022/04/24 02:44:11;;;;;;;20.30;12.73;;;23.10;40.70;;;;;;6142366;28;83463;-62
2022/04/24 02:47:12;;;;;;;24.15;13.05;;;23.10;40.90;;;;;;6155684;28;84899;-62
2022/04/24 02:50:12;;;;;;;22.30;12.40;;;23.10;40.80;;;;;;6154693;28;84483;-62
2022/04/24 02:53:14;;;;;;;18.88;12.15;;;23.10;40.90;;;;;;6131140;28;83502;-62
2022/04/24 02:56:15;;;;;;;21.83;12.27;;;23.10;40.90;;;;;;6132314;28;82835;-62
2022/04/24 02:59:16;;;;;;;23.70;13.68;;;23.10;41.10;;;;;;6153402;28;85019;-62
2022/04/24 03:02:17;;;;;;;20.63;13.00;;;23.10;41.00;;;;;;6155095;28;83364;-63
2022/04/24 03:05:17;;;;;;;18.98;12.20;;;23.10;41.10;;;;;;6156219;28;84515;-61
2022/04/24 03:08:18;;;;;;;23.85;13.80;;;23.10;41.30;;;;;;6156495;28;83152;-62
2022/04/24 03:11:18;;;;;;;24.67;14.13;;;23.10;41.10;;;;;;6156887;28;82981;-62
2022/04/24 03:14:19;;;;;;;24.50;14.45;;;23.10;41.00;;;;;;6156062;28;84806;-62
2022/04/24 03:17:19;;;;;;;26.08;15.07;;;23.10;40.80;;;;;;6153574;28;82995;-63
2022/04/24 03:20:20;;;;;;;24.92;15.23;;;23.10;40.70;;;;;;6135827;28;82629;-62
2022/04/24 03:23:20;;;;;;;24.60;14.05;;;23.00;40.60;;;;;;6156304;28;83066;-62
2022/04/24 03:26:21;;;;;;;24.15;13.40;;;23.10;41.50;;;;;;6155119;28;82940;-63
2022/04/24 03:29:21;;;;;;;25.70;14.93;;;23.00;40.70;;;;;;6153502;28;83480;-62
2022/04/24 03:32:22;;;;;;;23.42;13.95;;;23.00;40.90;;;;;;6155151;28;83865;-62
2022/04/24 03:35:23;;;;;;;23.10;13.77;;;23.10;41.30;;;;;;6156652;28;83120;-61
2022/04/24 03:38:23;;;;;;;21.48;13.57;;;23.00;40.80;;;;;;6148480;28;82978;-61
2022/04/24 03:41:24;;;;;;;21.58;13.02;;;23.10;41.10;;;;;;6132230;28;83703;-62
2022/04/24 03:44:24;;;;;;;26.60;14.27;;;23.00;41.60;;;;;;6130687;28;84464;-62
2022/04/24 03:47:25;;;;;;;23.98;13.88;;;23.00;41.50;;;;;;6131984;28;82978;-62
2022/04/24 03:50:26;;;;;;;23.13;14.15;;;23.10;41.30;;;;;;6130198;28;83349;-61
2022/04/24 03:53:26;;;;;;;21.45;13.02;;;23.00;41.20;;;;;;6139974;28;84314;-62
2022/04/24 03:56:31;;;;;;;21.08;13.57;;;23.00;41.60;;;;;;6149176;28;84040;-62
2022/04/24 03:59:32;;;;;;;22.42;14.00;;;23.00;41.30;;;;;;6147068;28;83822;-61
2022/04/24 04:02:32;;;;;;;22.30;14.02;;;23.10;41.10;;;;;;6137546;28;83025;-62
2022/04/24 04:05:33;;;;;;;22.63;13.75;;;23.10;41.20;;;;;;6152632;28;84330;-62
2022/04/24 04:08:34;;;;;;;24.05;13.02;;;23.10;41.40;;;;;;6150746;28;84293;-61
2022/04/24 04:11:34;;;;;;;22.95;13.95;;;23.10;41.40;;;;;;6149815;28;83689;-60
2022/04/24 04:14:35;;;;;;;22.33;13.43;;;23.00;41.40;;;;;;6141892;28;85090;-61
2022/04/24 04:17:35;;;;;;;21.88;13.18;;;23.10;41.40;;;;;;6147562;28;82978;-67
2022/04/24 04:20:36;;;;;;;23.00;13.90;;;23.10;41.50;;;;;;6150928;28;84688;-66
2022/04/24 04:23:36;;;;;;;20.95;13.18;;;23.10;41.60;;;;;;6150990;28;84546;-66
2022/04/24 04:26:37;;;;;;;27.05;13.20;;;23.10;41.90;;;;;;6154986;28;83088;-66
2022/04/24 04:29:37;;;;;;;22.48;12.73;;;23.10;42.10;;;;;;6148689;28;83368;-65
2022/04/24 04:32:38;;;;;;;22.02;13.77;;;23.10;41.90;;;;;;6154638;28;84354;-65
2022/04/24 04:35:38;;;;;;;22.58;13.38;;;23.10;41.80;;;;;;6153454;28;84244;-67
2022/04/24 04:38:39;;;;;;;20.27;12.18;;;23.00;41.80;;;;;;6140544;28;83082;-67
2022/04/24 04:41:40;;;;;;;24.92;13.15;;;23.10;42.40;;;;;;6154373;28;84361;-64
2022/04/24 04:44:40;;;;;;;26.98;13.65;;;23.10;42.60;;;;;;6146406;28;83126;-68
2022/04/24 04:47:41;;;;;;;21.75;12.90;;;23.20;43.00;;;;;;6130464;28;83105;-66
2022/04/24 04:50:41;;;;;;;26.00;13.85;;;23.20;43.30;;;;;;6130347;28;89796;-67
2022/04/24 04:53:42;;;;;;;26.15;13.63;;;23.20;43.30;;;;;;6139426;28;83013;-65
2022/04/24 04:56:42;;;;;;;21.65;13.02;;;23.20;43.70;;;;;;6151365;28;83007;-65
2022/04/24 04:59:43;;;;;;;25.48;12.35;;;23.20;43.20;;;;;;6149240;28;84136;-66
2022/04/24 05:02:43;;;;;;;31.00;12.68;;;23.20;43.30;;;;;;6152137;28;83187;-72
2022/04/24 05:05:44;;;;;;;25.40;12.80;;;23.20;43.50;;;;;;6141709;28;83326;-64
2022/04/24 05:08:44;;;;;;;29.48;13.80;;;23.20;43.70;;;;;;6129026;28;83210;-64
2022/04/24 05:11:45;;;;;;;24.30;11.85;;;23.20;43.60;;;;;;6130179;28;82822;-65
2022/04/24 05:14:45;;;;;;;21.65;12.82;;;23.20;44.10;;;;;;6138495;28;83421;-65
2022/04/24 05:17:46;;;;;;;22.33;13.20;;;23.10;44.50;;;;;;6152780;28;83493;-64
2022/04/24 05:20:47;;;;;;;20.27;11.93;;;23.20;44.70;;;;;;6148437;28;83037;-64
2022/04/24 05:23:49;;;;;;;25.45;13.45;;;23.30;44.90;;;;;;6154817;28;83244;-65
2022/04/24 05:26:50;;;;;;;20.75;12.38;;;23.30;44.70;;;;;;6137463;28;85025;-65
2022/04/24 05:29:50;;;;;;;25.27;12.90;;;23.30;44.80;;;;;;6151966;28;83117;-65
2022/04/24 05:32:51;;;;;;;21.45;12.80;;;23.30;44.50;;;;;;6149301;28;82971;-68
2022/04/24 05:35:52;;;;;;;21.17;12.73;;;23.30;44.40;;;;;;6141606;28;82992;-66
2022/04/24 05:38:52;;;;;;;19.13;12.07;;;23.30;44.20;;;;;;6134453;28;83108;-73
2022/04/24 05:41:53;;;;;;;21.58;12.23;;;23.30;44.00;;;;;;6152572;28;84279;-66
2022/04/24 05:44:53;;;;;;;23.08;12.57;;;23.30;44.50;;;;;;6158491;28;83132;-65
2022/04/24 05:47:54;;;;;;;28.98;13.55;;;23.40;44.90;;;;;;6156827;28;83586;-66
2022/04/24 05:50:55;;;;;;;21.92;12.88;;;23.40;45.20;;;;;;6140155;28;83296;-69
2022/04/24 05:53:55;;;;;;;18.92;11.93;;;23.40;45.10;;;;;;6133280;28;82850;-64
2022/04/24 05:56:56;;;;;;;21.80;11.70;;;23.40;45.00;;;;;;6140566;28;83367;-65
2022/04/24 05:59:58;;;;;;;30.27;12.63;;;23.40;44.80;;;;;;6151931;28;87098;-65
2022/04/24 06:02:58;;;;;;;34.85;12.60;;;23.40;44.50;;;;;;6144601;28;83365;-64
2022/04/24 06:05:59;;;;;;;24.23;12.38;;;23.40;44.50;;;;;;6148267;28;83318;-65
2022/04/24 06:08:59;;;;;;;23.80;12.55;;;23.40;44.60;;;;;;6157421;28;83131;-63
2022/04/24 06:12:01;;;;;;;22.92;12.63;;;23.40;44.60;;;;;;6149512;28;82919;-66
2022/04/24 06:15:02;;;;;;;24.38;13.80;;;23.40;44.50;;;;;;6155214;28;83693;-66
2022/04/24 06:18:02;;;;;;;24.13;12.63;;;23.40;44.90;;;;;;6146099;28;84324;-65
2022/04/24 06:21:03;;;;;;;24.70;13.30;;;23.40;44.90;;;;;;6151656;28;83057;-64
2022/04/24 06:24:03;;;;;;;23.02;13.57;;;23.40;44.90;;;;;;6141212;28;83744;-67
2022/04/24 06:27:04;;;;;;;24.73;12.95;;;23.40;45.30;;;;;;6154349;28;83481;-66
2022/04/24 06:30:04;;;;;;;21.98;13.00;;;23.40;45.10;;;;;;6132063;28;83133;-66
2022/04/24 06:33:05;;;;;;;25.42;13.45;;;23.40;45.20;;;;;;6141223;28;83777;-66
2022/04/24 06:36:05;;;;;;;20.33;12.50;;;23.40;46.10;;;;;;6147931;28;83487;-67
2022/04/24 06:39:06;;;;;;;25.90;14.30;;;23.50;46.90;;;;;;6152131;28;83111;-69
2022/04/24 06:42:06;;;;;;;21.70;13.55;;;23.50;46.50;;;;;;6152514;28;83617;-66
2022/04/24 06:45:09;;;;;;;22.70;13.27;;;23.50;46.10;;;;;;6154319;28;84712;-67
2022/04/24 06:48:12;;;;;;;23.42;13.82;;;23.50;46.30;;;;;;6154233;28;83649;-68
2022/04/24 06:51:13;;;;;;;22.77;13.48;;;23.50;46.20;;;;;;6152831;28;85209;-73
2022/04/24 06:54:13;;;;;;;32.45;12.40;;;23.50;45.90;;;;;;6155844;28;84205;-66
2022/04/24 06:57:14;;;;;;;24.15;13.77;;;23.50;45.50;;;;;;6150454;28;83368;-66
2022/04/24 07:00:14;;;;;;;28.52;16.52;;;23.50;45.90;;;;;;6148490;28;83303;-66
2022/04/24 07:03:16;;;;;;;87.82;42.65;;;23.40;45.80;;;;;;6149510;28;83512;-67
2022/04/24 07:06:16;;;;;;;210.45;101.82;;;23.50;45.90;;;;;;6133338;28;83984;-66
2022/04/24 07:09:17;;;;;;;223.23;105.82;;;23.50;46.00;;;;;;6131563;28;86028;-66
2022/04/24 07:12:17;;;;;;;218.65;110.47;;;23.50;45.70;;;;;;6128292;28;86143;-66
2022/04/24 07:15:18;;;;;;;226.43;106.80;;;23.50;45.50;;;;;;6143689;28;86539;-66
2022/04/24 07:18:18;;;;;;;220.25;102.20;;;23.50;45.40;;;;;;6154163;28;85606;-66
2022/04/24 07:21:19;;;;;;;161.75;76.55;;;23.50;45.40;;;;;;6149729;28;85732;-66
2022/04/24 07:24:20;;;;;;;150.45;70.97;;;23.50;45.60;;;;;;6152619;28;86457;-66
2022/04/24 07:27:20;;;;;;;138.55;69.70;;;23.50;45.60;;;;;;6152774;28;83016;-66
2022/04/24 07:30:21;;;;;;;126.20;62.65;;;23.50;45.40;;;;;;6154579;28;83082;-70
2022/04/24 07:33:21;;;;;;;109.72;54.40;;;23.50;45.40;;;;;;6146096;28;88896;-72
2022/04/24 07:36:22;;;;;;;107.40;51.80;;;23.50;45.30;;;;;;6133285;28;83200;-65
2022/04/24 07:39:22;;;;;;;97.03;47.53;;;23.40;45.20;;;;;;6144033;28;84026;-67
2022/04/24 07:42:23;;;;;;;112.03;52.78;;;23.40;45.60;;;;;;6154647;28;84368;-67
2022/04/24 07:45:23;;;;;;;168.55;75.15;;;23.40;45.90;;;;;;6149257;28;84382;-67
2022/04/24 07:48:24;;;;;;;324.35;141.60;;;23.50;46.10;;;;;;6155853;28;83168;-66
2022/04/24 07:51:24;;;;;;;421.83;187.10;;;23.50;45.70;;;;;;6143739;28;86115;-66
2022/04/24 07:54:25;;;;;;;517.78;244.63;;;23.50;45.60;;;;;;6129191;28;85526;-66
2022/04/24 07:57:25;;;;;;;468.85;215.13;;;23.50;45.40;;;;;;6150744;28;86139;-65
2022/04/24 08:00:26;;;;;;;399.52;178.27;;;23.60;45.50;;;;;;6138105;28;86869;-65
2022/04/24 08:03:27;;;;;;;369.52;163.40;;;23.60;45.90;;;;;;6150382;28;86358;-64
2022/04/24 08:06:27;;;;;;;341.75;149.02;;;23.60;45.80;;;;;;6149932;28;86027;-65
2022/04/24 08:09:28;;;;;;;331.95;145.27;;;23.60;45.90;;;;;;6150141;28;86252;-65
2022/04/24 08:12:28;;;;;;;288.23;128.15;;;23.60;45.70;;;;;;6143583;28;85450;-65
2022/04/24 08:15:29;;;;;;;248.43;113.20;;;23.60;45.60;;;;;;6149375;28;86215;-65
2022/04/24 08:18:30;;;;;;;225.77;104.63;;;23.60;45.70;;;;;;6148351;28;85739;-66
2022/04/24 08:21:30;;;;;;;212.40;97.15;;;23.60;45.60;;;;;;6151293;28;85844;-65
2022/04/24 08:24:31;;;;;;;195.13;87.90;;;23.60;45.60;;;;;;6154236;28;84856;-64
2022/04/24 08:27:31;;;;;;;181.50;84.28;;;23.60;45.40;;;;;;6149989;28;86110;-65
2022/04/24 08:30:32;;;;;;;174.75;79.10;;;23.60;45.40;;;;;;6151898;28;83568;-64
2022/04/24 08:33:32;;;;;;;146.07;70.28;;;23.60;45.30;;;;;;6151517;28;83167;-64
2022/04/24 08:36:33;;;;;;;146.38;66.70;;;23.60;45.20;;;;;;6150794;28;84380;-64
2022/04/24 08:39:33;;;;;;;133.90;63.33;;;23.60;45.40;;;;;;6152153;28;83589;-65
2022/04/24 08:42:34;;;;;;;120.28;60.08;;;23.60;45.40;;;;;;6154750;28;83486;-64
2022/04/24 08:45:34;;;;;;;121.45;55.88;;;23.60;45.30;;;;;;6151090;28;84621;-65
2022/04/24 08:48:35;;;;;;;122.28;54.15;;;23.60;45.40;;;;;;6153926;28;83847;-65
2022/04/24 08:51:36;;;;;;;116.78;52.80;;;23.60;45.40;;;;;;6130526;28;85249;-63
2022/04/24 08:54:37;;;;;;;100.82;49.30;;;23.60;45.60;;;;;;6114521;28;84660;-64
2022/04/24 08:57:37;;;;;;;105.10;49.33;;;23.60;45.60;;;;;;6131238;28;83652;-67
2022/04/24 09:00:38;;;;;;;94.85;46.95;;;23.60;45.50;;;;;;6145310;28;83865;-65
2022/04/24 09:03:38;;;;;;;94.78;46.22;;;23.60;45.50;;;;;;6155728;28;83055;-65
2022/04/24 09:06:39;;;;;;;88.53;43.80;;;23.60;45.40;;;;;;6135848;28;85763;-64
2022/04/24 09:09:42;;;;;;;94.45;44.00;;;23.60;46.30;;;;;;6153548;28;83158;-67
2022/04/24 09:12:42;;;;;;;82.82;40.70;;;23.60;46.30;;;;;;6144220;28;83474;-63
2022/04/24 09:15:43;;;;;;;72.60;38.05;;;23.60;46.80;;;;;;6146528;28;83107;-64
2022/04/24 09:18:46;;;;;;;80.00;37.80;;;23.60;47.20;;;;;;6150690;28;84534;-64
2022/04/24 09:21:46;;;;;;;77.65;38.80;;;23.60;47.30;;;;;;6157986;28;83418;-64
2022/04/24 09:24:49;;;;;;;67.18;34.53;;;23.60;47.90;;;;;;6158144;28;83293;-65
2022/04/24 09:27:49;;;;;;;82.03;37.83;;;23.70;48.40;;;;;;6158334;28;83143;-65
2022/04/24 09:30:50;;;;;;;61.08;33.15;;;23.70;48.20;;;;;;6156656;28;83164;-66
2022/04/24 09:33:50;;;;;;;65.68;34.03;;;23.70;48.90;;;;;;6154120;28;82941;-66
2022/04/24 09:36:51;;;;;;;63.55;33.15;;;23.70;48.50;;;;;;6150256;28;84203;-70
2022/04/24 09:39:51;;;;;;;73.63;34.80;;;23.70;48.00;;;;;;6156946;28;84657;-69
2022/04/24 09:42:52;;;;;;;81.22;34.00;;;23.70;48.00;;;;;;6141670;28;84282;-73
2022/04/24 09:45:56;;;;;;;75.60;31.90;;;23.70;48.20;;;;;;6143960;28;84613;-73
2022/04/24 09:49:00;;;;;;;62.65;30.67;;;23.70;48.30;;;;;;6159285;28;83761;-67
2022/04/24 09:52:01;;;;;;;69.82;30.60;;;23.70;48.10;;;;;;6143256;28;84654;-68
2022/04/24 09:55:01;;;;;;;66.90;28.77;;;23.70;48.80;;;;;;6150551;28;87685;-68
2022/04/24 09:58:02;;;;;;;63.00;29.45;;;23.70;49.40;;;;;;6152285;28;83299;-69
2022/04/24 10:01:04;;;;;;;68.95;28.88;;;23.70;49.50;;;;;;6141729;28;83264;-68
2022/04/24 10:04:04;;;;;;;61.50;27.27;;;23.80;49.80;;;;;;6145195;28;84046;-68
2022/04/24 10:07:05;;;;;;;64.20;27.73;;;23.80;50.20;;;;;;6146191;28;84708;-66
2022/04/24 10:10:07;;;;;;;53.45;26.42;;;23.80;51.20;;;;;;6135554;28;83312;-67
2022/04/24 10:13:08;;;;;;;50.63;24.40;;;23.90;50.90;;;;;;6140724;28;83163;-67
2022/04/24 10:16:08;;;;;;;56.67;25.73;;;23.90;50.80;;;;;;6149157;28;82962;-69
2022/04/24 10:19:09;;;;;;;43.60;23.10;;;23.90;51.70;;;;;;6134277;28;83570;-65
2022/04/24 10:22:09;;;;;;;47.88;23.98;;;23.90;51.50;;;;;;6133627;28;83819;-67
2022/04/24 10:25:10;;;;;;;52.85;23.20;;;24.00;52.20;;;;;;6140840;28;83350;-67
2022/04/24 10:28:10;;;;;;;44.53;21.52;;;24.00;52.70;;;;;;6157000;28;83123;-68
2022/04/24 10:31:11;;;;;;;39.85;20.98;;;24.00;52.30;;;;;;6154745;28;83129;-71
2022/04/24 10:34:13;;;;;;;41.78;18.88;;;24.00;51.90;;;;;;6156302;28;83183;-70
2022/04/24 10:37:14;;;;;;;41.00;20.02;;;24.00;53.20;;;;;;6148554;28;83255;-68
2022/04/24 10:40:14;;;;;;;37.63;18.60;;;24.00;52.50;;;;;;6135720;28;82970;-68
2022/04/24 10:43:16;;;;;;;32.88;17.10;;;24.00;52.30;;;;;;6136122;28;82644;-69
2022/04/24 10:46:17;;;;;;;37.72;17.63;;;24.00;51.90;;;;;;6159804;28;83004;-67
2022/04/24 10:49:17;;;;;;;39.40;16.90;;;24.10;51.80;;;;;;6159167;28;87514;-67
2022/04/24 10:52:18;;;;;;;35.72;16.48;;;24.00;51.80;;;;;;6139878;28;83011;-79
2022/04/24 10:55:19;;;;;;;27.15;14.88;;;24.10;51.50;;;;;;6137320;28;83223;-67
2022/04/24 10:58:20;;;;;;;28.92;15.18;;;24.10;50.80;;;;;;6138881;28;83294;-68
2022/04/24 11:01:20;;;;;;;28.08;15.63;;;24.20;50.30;;;;;;6140385;28;82958;-69
2022/04/24 11:04:21;;;;;;;29.25;14.25;;;24.20;50.10;;;;;;6144317;28;82929;-67
2022/04/24 11:07:21;;;;;;;27.75;15.05;;;24.20;50.70;;;;;;6156858;28;83047;-68
2022/04/24 11:10:22;;;;;;;23.25;13.55;;;24.10;50.50;;;;;;6155849;28;86281;-69
2022/04/24 11:13:23;;;;;;;25.67;13.68;;;24.20;50.70;;;;;;6151870;28;83616;-69
2022/04/24 11:16:23;;;;;;;31.38;14.05;;;24.20;50.60;;;;;;6142444;28;84074;-70
2022/04/24 11:19:27;;;;;;;23.13;13.35;;;24.30;50.20;;;;;;6139968;28;83201;-70
2022/04/24 11:22:30;;;;;;;27.10;14.27;;;24.30;49.80;;;;;;6144883;28;83267;-71
2022/04/24 11:25:31;;;;;;;27.40;13.18;;;24.40;49.60;;;;;;6146464;28;84291;-71
2022/04/24 11:28:32;;;;;;;21.85;12.50;;;24.50;49.40;;;;;;6140792;28;83560;-70
2022/04/24 11:31:33;;;;;;;26.08;12.07;;;24.50;49.30;;;;;;6141698;28;83203;-71
2022/04/24 11:34:33;;;;;;;25.73;12.55;;;24.50;49.20;;;;;;6132006;28;83001;-70
2022/04/24 11:37:44;;;;;;;17.27;10.77;;;24.50;49.00;;;;;;6132776;28;83247;-72
2022/04/24 11:40:46;;;;;;;27.13;11.65;;;24.60;49.00;;;;;;6135576;28;84795;-72
2022/04/24 11:43:47;;;;;;;19.83;11.50;;;24.60;48.90;;;;;;6137365;28;83563;-72
2022/04/24 11:50:13;;;;;;;13.95;8.68;;;24.60;48.80;;;;;;6141827;28;84098;-67
2022/04/24 11:53:13;;;;;;;14.73;8.65;;;24.60;48.60;;;;;;6135141;28;81800;-67
2022/04/24 11:56:15;;;;;;;15.02;8.80;;;24.50;48.50;;;;;;6135600;28;81062;-68
2022/04/24 11:59:16;;;;;;;68.53;32.90;;;24.40;48.50;;;;;;6148554;28;80607;-67
2022/04/24 12:02:16;;;;;;;208.38;98.25;;;24.40;48.80;;;;;;6155924;28;82910;-66
2022/04/24 12:05:17;;;;;;;269.33;118.85;;;24.40;48.70;;;;;;6132374;28;83570;-67
2022/04/24 12:08:18;;;;;;;363.75;160.25;;;24.40;48.60;;;;;;6136447;28;85716;-66
2022/04/24 12:11:20;;;;;;;318.65;145.68;;;24.40;48.50;;;;;;6151799;28;85632;-66
2022/04/24 12:14:21;;;;;;;251.55;113.38;;;24.40;48.50;;;;;;6141462;28;86765;-67
2022/04/24 12:17:21;;;;;;;226.68;98.82;;;24.40;48.60;;;;;;6152673;28;86441;-67
2022/04/24 12:20:22;;;;;;;225.52;104.47;;;24.40;48.50;;;;;;6154149;28;86207;-67
2022/04/24 12:23:23;;;;;;;225.05;108.43;;;24.40;48.70;;;;;;6153264;28;85348;-68
2022/04/24 12:26:23;;;;;;;242.15;116.22;;;24.40;48.60;;;;;;6152641;28;86527;-68
2022/04/24 12:29:24;;;;;;;252.93;127.40;;;24.40;48.50;;;;;;6152764;28;85536;-67
2022/04/24 12:32:24;;;;;;;303.60;143.10;;;24.30;48.30;;;;;;6144757;28;85855;-68
2022/04/24 12:35:26;;;;;;;243.77;114.28;;;24.30;48.20;;;;;;6134320;28;85608;-67
2022/04/24 12:38:29;;;;;;;192.10;91.97;;;24.30;47.80;;;;;;6132221;28;87554;-67
2022/04/24 12:41:30;;;;;;;158.45;80.65;;;24.20;47.50;;;;;;6149929;28;85706;-66
2022/04/24 12:44:33;;;;;;;162.40;77.45;;;24.20;47.60;;;;;;6141735;28;84105;-67
2022/04/24 12:47:34;;;;;;;132.70;61.65;;;24.10;47.60;;;;;;6143972;28;83497;-68
2022/04/24 12:50:35;;;;;;;125.20;54.17;;;24.20;47.60;;;;;;6153956;28;84209;-66
2022/04/24 12:53:35;;;;;;;90.57;44.72;;;24.10;47.50;;;;;;6152795;28;84126;-66
2022/04/24 12:56:37;;;;;;;91.90;42.10;;;24.10;47.20;;;;;;6148775;28;85826;-67
2022/04/24 12:59:39;;;;;;;72.93;32.78;;;24.00;47.30;;;;;;6141937;28;84184;-67
2022/04/24 13:02:42;;;;;;;68.20;31.48;;;24.00;47.50;;;;;;6150925;28;83492;-67
2022/04/24 13:05:42;;;;;;;64.88;32.80;;;24.00;48.00;;;;;;6138864;28;82978;-69
2022/04/24 13:08:43;;;;;;;72.80;31.45;;;24.10;48.00;;;;;;6147180;28;83291;-70
2022/04/24 13:11:43;;;;;;;64.22;29.73;;;24.10;48.30;;;;;;6132030;28;82873;-70
2022/04/24 13:14:44;;;;;;;67.82;30.48;;;24.10;48.60;;;;;;6130388;28;84372;-71
2022/04/24 13:21:04;;;;;;;54.83;27.30;;;24.20;48.70;;;;;;6142361;28;83292;-70
2022/04/24 13:24:04;;;;;;;48.25;22.70;;;24.20;48.70;;;;;;6149342;28;83205;-72
2022/04/24 13:27:07;;;;;;;54.70;23.65;;;24.20;48.70;;;;;;6139628;28;84157;-69
2022/04/24 13:30:09;;;;;;;47.88;22.63;;;24.20;48.80;;;;;;6149060;28;83903;-73
2022/04/24 13:33:10;;;;;;;35.35;19.65;;;24.30;49.00;;;;;;6151154;28;83016;-71
2022/04/24 13:36:11;;;;;;;36.38;18.10;;;24.30;48.70;;;;;;6152701;28;84234;-69
2022/04/24 13:39:11;;;;;;;33.58;16.65;;;24.30;48.20;;;;;;6149883;28;83305;-68
2022/04/24 13:42:14;;;;;;;28.15;14.68;;;24.30;48.20;;;;;;6139033;28;83336;-68
2022/04/24 13:45:14;;;;;;;28.95;15.00;;;24.30;48.20;;;;;;6144819;28;83619;-70
2022/04/24 13:48:15;;;;;;;28.50;15.02;;;24.30;48.50;;;;;;6128751;28;83448;-68
2022/04/24 13:51:17;;;;;;;25.38;13.13;;;24.30;48.40;;;;;;6147463;28;83118;-68
2022/04/24 13:54:18;;;;;;;25.83;12.77;;;24.30;48.50;;;;;;6150462;28;83604;-68
2022/04/24 13:57:19;;;;;;;30.15;13.63;;;24.30;48.60;;;;;;6152089;28;82926;-67
2022/04/24 14:00:20;;;;;;;21.13;11.82;;;24.30;48.50;;;;;;6152839;28;83043;-68
2022/04/24 14:03:20;;;;;;;20.48;10.30;;;24.40;47.90;;;;;;6148131;28;82910;-71
2022/04/24 14:06:21;;;;;;;19.20;7.80;;;24.40;47.50;;;;;;6141204;28;84613;-70
2022/04/24 14:09:23;;;;;;;11.20;6.70;;;24.30;46.50;;;;;;6149382;28;83185;-69
2022/04/24 14:12:26;;;;;;;10.65;7.00;;;24.20;46.80;;;;;;6149630;28;81196;-71
2022/04/24 14:15:27;;;;;;;26.75;5.75;;;24.20;46.70;;;;;;6137707;28;83881;-67
2022/04/24 14:18:27;;;;;;;12.95;5.13;;;24.20;46.40;;;;;;6161589;28;80571;-68
2022/04/24 14:21:28;;;;;;;8.90;4.97;;;24.20;46.10;;;;;;6160382;28;80421;-69
2022/04/24 14:24:28;;;;;;;10.13;4.85;;;24.10;46.60;;;;;;6160878;28;80600;-73
2022/04/24 14:27:29;;;;;;;12.32;4.95;;;24.10;46.60;;;;;;6146693;28;83840;-67
2022/04/24 14:30:29;;;;;;;11.20;5.18;;;24.20;46.40;;;;;;6160087;28;80524;-71
2022/04/24 14:33:30;;;;;;;11.30;4.63;;;24.10;46.30;;;;;;6160416;28;81441;-68
2022/04/24 14:36:30;;;;;;;8.18;5.15;;;24.00;46.30;;;;;;6159302;28;81952;-67
2022/04/24 14:39:31;;;;;;;6.45;4.55;;;24.00;46.70;;;;;;6161196;28;80437;-67
2022/04/24 14:42:34;;;;;;;6.45;3.88;;;23.80;46.50;;;;;;6148579;28;81794;-66
2022/04/24 14:55:44;;;;;;;5.88;4.00;;;23.20;46.90;;;;;;6155033;28;85033;-68
2022/04/24 14:58:45;;;;;;;8.35;4.07;;;23.40;47.20;;;;;;6157995;28;80944;-65
2022/04/24 15:01:45;;;;;;;12.23;4.40;;;23.40;47.10;;;;;;6157568;28;81007;-67
2022/04/24 15:04:46;;;;;;;11.50;4.28;;;23.50;47.20;;;;;;6159558;28;80501;-68
2022/04/24 15:07:46;;;;;;;7.68;4.50;;;23.50;47.20;;;;;;6160004;28;82066;-71
2022/04/24 15:10:47;;;;;;;11.68;4.20;;;23.60;47.10;;;;;;6161078;28;80529;-67
2022/04/24 15:13:48;;;;;;;8.40;4.80;;;23.70;47.50;;;;;;6152837;28;81106;-65
2022/04/24 15:16:49;;;;;;;17.98;5.43;;;23.70;47.40;;;;;;6138084;28;80353;-66
2022/04/24 15:19:50;;;;;;;82.53;37.97;;;23.80;47.90;;;;;;6160659;28;80423;-66
2022/04/24 15:22:53;;;;;;;152.15;70.68;;;23.80;47.80;;;;;;6144757;28;83640;-67
2022/04/24 15:25:53;;;;;;;254.35;122.30;;;23.90;47.80;;;;;;6133023;28;83909;-66
2022/04/24 15:28:54;;;;;;;195.77;95.60;;;23.90;47.90;;;;;;6148247;28;85788;-65
2022/04/24 15:31:54;;;;;;;218.40;100.82;;;24.00;47.80;;;;;;6155216;28;84035;-67